Карточка аэропорта USSS

Внимание!
Информация на этой странице в стадии наполнения.
Если вы не увидели какой-то информации, или заметили неточность - пожалуйста сообщите нам!
Спасибо!
Команда RU-STAFF
Название аэропортаКольцово
Название аэропорта (англ.)Koltsovo
Превышение766 ft. (233.5 m.)
Координаты56°44.586', 60°48.186'
Высота перехода900m
Эшелон переходаQFE>=739mm:FL050; QFE 712mm-738mm:FL060; QFE<=712mm:FL70
Коды ответчика5520-5557
Зона ОрВДЕкатеринбург РПИ (USSV)
Данные METARUSSS 041700Z 34003MPS 2000 R26L/P2000N SHSN BKN011CB M07/M07 Q1035 R26L/390331 NOSIG RMK QFE755/1007
Проноз погоды (TAF)USSS 041531Z 0416/0515 30005G15MPS 6000 -SHSN BKN011CB TEMPO 0416/0422 1600 SHSN FZRA BKN004 BKN010CB BECMG 0418/0419 35003G13MPS BECMG 0423/0501 04003G13MPS BECMG 0505/0507 BKN016CB BECMG 0507/0509 9999 -SHSN
NOTAMshow/hide NOTAM
AWOS   TABLE

Информация о ВПП

ВПП Длина ВПП (м.) Покрытие Курс ВПП Частота ILS
08L3004Асфальтобетон75111.7
08R3026Бетон79109.9
26L3026Бетон259109.5
26R3004Асфальтобетон255110.5

Диспетчерские позиции

Позывной Наименование органа УВД Частота
USSS_R_APPКольцово-Круг118.7
USSS_GNDКольцово-Руление119.0
USSSFM1Машина сопровождения119.000
USSS_TWRКольцово-Старт124.3
USSS_APPКольцово-Подход125.9
USSS_ATIS_APPКольцово АТИС127.850
USSV_FSS_CTRКольцово Транзит131.900



Спутниковое изображение